Time;durP1;ratioP1;P1;durP2;ratioP2;P2;SDS_P1;SDS_P2;PMS_P1;PMS_P2;Temp;Humidity;BMP_temperature;BMP_pressure;BME280_temperature;BME280_humidity;BME280_pressure;Samples;Min_cycle;Max_cycle;Signal;HPM_P1;HPM_P2
2022/01/08 00:12:20;;;;;;;1.58;1.48;;;;;;;;;;6249168;23;20087;-93
2022/01/08 00:14:46;;;;;;;9.93;2.50;;;;;;;;;;6223786;23;20066;-94
2022/01/08 00:17:12;;;;;;;3.95;1.90;;;;;;;;;;6222389;23;20016;-93
2022/01/08 00:19:39;;;;;;;7.22;1.60;;;;;;;;;;6222150;23;20020;-93
2022/01/08 00:22:05;;;;;;;2.55;2.17;;;;;;;;;;6224157;23;20106;-93
2022/01/08 00:24:31;;;;;;;5.68;1.85;;;;;;;;;;6222348;23;20022;-92
2022/01/08 00:26:57;;;;;;;1.92;1.65;;;;;;;;;;6222600;23;20503;-93
2022/01/08 00:29:23;;;;;;;2.78;1.65;;;;;;;;;;6222958;23;20035;-92
2022/01/08 00:31:49;;;;;;;3.10;1.50;;;;;;;;;;6222708;23;20022;-92
2022/01/08 00:34:15;;;;;;;9.05;1.90;;;;;;;;;;6223437;23;20019;-93
2022/01/08 00:36:41;;;;;;;6.55;2.08;;;;;;;;;;6222408;23;20058;-93
2022/01/08 00:39:07;;;;;;;3.45;1.42;;;;;;;;;;6222530;23;20023;-93
2022/01/08 00:41:33;;;;;;;9.48;2.30;;;;;;;;;;6222681;23;20039;-92
2022/01/08 00:43:59;;;;;;;8.27;1.77;;;;;;;;;;6222580;23;20016;-92
2022/01/08 00:46:26;;;;;;;3.38;1.85;;;;;;;;;;6222259;23;20020;-93
2022/01/08 00:48:52;;;;;;;7.18;1.88;;;;;;;;;;6222721;23;20012;-92
2022/01/08 00:51:18;;;;;;;5.22;1.77;;;;;;;;;;6222656;23;20024;-93
2022/01/08 00:53:44;;;;;;;4.90;1.98;;;;;;;;;;6222205;23;20016;-92
2022/01/08 00:56:10;;;;;;;4.75;1.70;;;;;;;;;;6222200;23;20052;-92
2022/01/08 00:58:36;;;;;;;9.77;2.00;;;;;;;;;;6222514;23;20149;-92
2022/01/08 01:01:02;;;;;;;4.15;1.90;;;;;;;;;;6222961;23;20028;-92
2022/01/08 01:03:28;;;;;;;5.13;1.85;;;;;;;;;;6221381;23;20512;-92
2022/01/08 01:05:54;;;;;;;5.13;1.83;;;;;;;;;;6221847;22;20543;-92
2022/01/08 01:08:20;;;;;;;2.50;1.90;;;;;;;;;;6221827;23;20174;-92
2022/01/08 01:10:46;;;;;;;4.22;2.63;;;;;;;;;;6222004;23;20024;-92
2022/01/08 01:13:12;;;;;;;2.17;1.73;;;;;;;;;;6222023;23;20024;-92
2022/01/08 01:15:38;;;;;;;4.18;2.20;;;;;;;;;;6223058;23;20023;-92
2022/01/08 01:18:05;;;;;;;6.15;2.03;;;;;;;;;;6221890;23;20023;-92
2022/01/08 01:20:31;;;;;;;4.40;2.45;;;;;;;;;;6247585;23;20066;-92
2022/01/08 01:23:11;;;;;;;8.30;4.10;;;;;;;;;;6221837;23;20120;-92
2022/01/08 01:25:48;;;;;;;6.80;2.78;;;;;;;;;;6221248;23;20017;-92
2022/01/08 01:28:44;;;;;;;8.07;2.28;;;;;;;;;;6221310;23;20016;-92
2022/01/08 01:47:14;;;;;;;5.82;2.10;;;;;;;;;;6246667;23;20021;-92
2022/01/08 01:49:45;;;;;;;4.43;2.50;;;;;;;;;;6221574;23;20103;-93
2022/01/08 01:52:13;;;;;;;3.42;2.00;;;;;;;;;;6221560;23;20023;-93
2022/01/08 01:54:39;;;;;;;2.83;1.80;;;;;;;;;;6221312;23;20016;-93
2022/01/08 01:57:06;;;;;;;4.95;2.30;;;;;;;;;;6221337;23;20012;-92
2022/01/08 01:59:33;;;;;;;2.90;2.15;;;;;;;;;;6221123;23;20099;-92
2022/01/08 02:02:00;;;;;;;4.05;2.22;;;;;;;;;;6221453;23;20013;-92
2022/01/08 02:04:26;;;;;;;4.63;2.05;;;;;;;;;;6221610;23;20082;-93
2022/01/08 02:06:53;;;;;;;5.30;2.38;;;;;;;;;;6221807;23;20020;-93
2022/01/08 02:09:19;;;;;;;5.90;2.03;;;;;;;;;;6246945;23;20460;-92
2022/01/08 02:12:04;;;;;;;3.00;1.65;;;;;;;;;;6222693;23;20026;-94
2022/01/08 02:14:32;;;;;;;4.38;1.80;;;;;;;;;;6221356;23;20354;-92
2022/01/08 02:16:58;;;;;;;5.07;2.10;;;;;;;;;;6221592;23;20024;-92
2022/01/08 02:19:25;;;;;;;2.92;2.20;;;;;;;;;;6222663;23;20016;-93
2022/01/08 02:21:52;;;;;;;3.33;1.70;;;;;;;;;;6221312;23;20020;-92
2022/01/08 02:24:18;;;;;;;3.25;1.52;;;;;;;;;;6220563;23;20020;-92
2022/01/08 02:26:44;;;;;;;7.75;1.42;;;;;;;;;;6220960;23;20020;-91
2022/01/08 02:29:14;;;;;;;2.03;1.35;;;;;;;;;;6221174;23;20051;-93
2022/01/08 02:31:41;;;;;;;8.25;2.30;;;;;;;;;;6221502;23;20027;-92
2022/01/08 02:34:07;;;;;;;3.63;1.65;;;;;;;;;;6220977;23;20012;-92
2022/01/08 02:36:34;;;;;;;2.72;1.65;;;;;;;;;;6221835;23;20020;-91
2022/01/08 02:39:00;;;;;;;4.22;1.40;;;;;;;;;;6247044;23;20012;-92
2022/01/08 02:41:27;;;;;;;5.22;2.15;;;;;;;;;;6221053;23;20082;-92
2022/01/08 02:43:54;;;;;;;1.20;1.08;;;;;;;;;;6223782;23;20047;-91
2022/01/08 02:46:20;;;;;;;2.53;1.27;;;;;;;;;;6223556;23;20392;-91
2022/01/08 02:48:46;;;;;;;1.38;1.20;;;;;;;;;;6223095;23;20103;-92
2022/01/08 02:51:13;;;;;;;2.15;1.20;;;;;;;;;;6224156;23;20020;-92
2022/01/08 02:53:39;;;;;;;2.45;1.35;;;;;;;;;;6222990;23;20114;-92
2022/01/08 02:56:05;;;;;;;9.52;1.27;;;;;;;;;;6222902;23;20100;-92
2022/01/08 02:58:32;;;;;;;1.25;0.80;;;;;;;;;;6222985;23;20335;-93
2022/01/08 03:01:01;;;;;;;3.75;1.40;;;;;;;;;;6223188;23;20062;-93
2022/01/08 03:03:27;;;;;;;3.90;1.05;;;;;;;;;;6223199;23;20016;-93
2022/01/08 03:05:53;;;;;;;1.27;1.15;;;;;;;;;;6223314;22;20020;-93
2022/01/08 03:08:19;;;;;;;1.77;0.77;;;;;;;;;;6223391;23;20341;-92
2022/01/08 03:10:45;;;;;;;1.85;1.00;;;;;;;;;;6224209;23;20016;-93
2022/01/08 03:13:11;;;;;;;6.63;1.27;;;;;;;;;;6223638;23;20441;-93
2022/01/08 03:15:39;;;;;;;1.48;1.05;;;;;;;;;;6223877;23;20020;-93
2022/01/08 03:18:06;;;;;;;0.80;0.80;;;;;;;;;;6222988;23;20023;-94
2022/01/08 03:20:35;;;;;;;1.98;1.00;;;;;;;;;;6223310;23;20147;-93
2022/01/08 03:23:03;;;;;;;3.08;1.10;;;;;;;;;;6223090;23;20472;-94
2022/01/08 03:25:32;;;;;;;1.58;1.02;;;;;;;;;;6223533;23;20445;-93
2022/01/08 03:27:58;;;;;;;1.10;1.00;;;;;;;;;;6223225;23;20011;-93
2022/01/08 03:30:25;;;;;;;3.08;1.10;;;;;;;;;;6224338;23;20020;-92
2022/01/08 03:32:52;;;;;;;5.35;1.48;;;;;;;;;;6222819;23;20069;-92
2022/01/08 03:35:18;;;;;;;5.78;1.30;;;;;;;;;;6222520;23;20103;-92
2022/01/08 03:37:45;;;;;;;1.58;1.15;;;;;;;;;;6222706;23;20058;-92
2022/01/08 03:40:11;;;;;;;3.45;1.83;;;;;;;;;;6222808;23;20016;-91
2022/01/08 03:42:37;;;;;;;9.48;1.73;;;;;;;;;;6222814;23;20016;-92
2022/01/08 03:45:03;;;;;;;5.07;1.40;;;;;;;;;;6224158;23;20067;-92
2022/01/08 03:47:52;;;;;;;1.02;0.90;;;;;;;;;;6224185;23;20322;-92
2022/01/08 03:50:16;;;;;;;1.20;1.10;;;;;;;;;;6249378;23;20354;-91
2022/01/08 03:52:42;;;;;;;2.22;1.23;;;;;;;;;;6224391;23;20023;-93
2022/01/08 03:55:08;;;;;;;6.57;1.15;;;;;;;;;;6223717;23;20060;-92
2022/01/08 04:00:29;;;;;;;1.75;1.20;;;;;;;;;;6216431;22;20020;-92
2022/01/08 04:02:55;;;;;;;5.28;1.20;;;;;;;;;;6192965;23;20024;-92
2022/01/08 04:05:21;;;;;;;2.35;1.33;;;;;;;;;;6192938;23;20529;-92
2022/01/08 04:07:47;;;;;;;6.10;1.42;;;;;;;;;;6192440;23;20017;-93
2022/01/08 04:10:13;;;;;;;3.38;1.20;;;;;;;;;;6192262;23;20039;-92
2022/01/08 04:12:48;;;;;;;2.13;1.30;;;;;;;;;;6191915;23;20016;-91
2022/01/08 04:17:47;;;;;;;2.90;1.23;;;;;;;;;;6217168;23;20032;-91
2022/01/08 04:20:13;;;;;;;4.70;1.23;;;;;;;;;;6186366;22;20039;-92
2022/01/08 04:22:39;;;;;;;4.80;1.58;;;;;;;;;;6221608;23;20024;-93
2022/01/08 04:25:05;;;;;;;0.90;0.90;;;;;;;;;;6222256;23;20070;-92
2022/01/08 04:27:31;;;;;;;1.58;1.38;;;;;;;;;;6222994;23;20020;-92
2022/01/08 04:29:57;;;;;;;1.20;0.93;;;;;;;;;;6222330;23;20331;-92
2022/01/08 04:32:23;;;;;;;4.47;1.33;;;;;;;;;;6222076;23;20520;-92
2022/01/08 04:34:49;;;;;;;1.48;1.23;;;;;;;;;;6222201;23;20080;-92
2022/01/08 04:37:15;;;;;;;5.85;1.40;;;;;;;;;;6222239;23;20115;-92
2022/01/08 04:39:41;;;;;;;3.13;1.45;;;;;;;;;;6223409;23;20019;-92
2022/01/08 04:42:08;;;;;;;1.52;1.10;;;;;;;;;;6222883;23;20052;-93
2022/01/08 04:44:34;;;;;;;2.80;1.10;;;;;;;;;;6221946;23;20043;-92
2022/01/08 04:50:38;;;;;;;4.20;1.40;;;;;;;;;;6191208;23;20104;-93
2022/01/08 04:53:05;;;;;;;5.25;1.52;;;;;;;;;;6166868;23;20024;-93
2022/01/08 04:55:31;;;;;;;3.55;1.80;;;;;;;;;;6166593;23;20047;-94
2022/01/08 04:57:57;;;;;;;5.75;1.77;;;;;;;;;;6166859;23;20059;-91
2022/01/08 05:00:23;;;;;;;2.33;1.30;;;;;;;;;;6166405;23;20017;-92
2022/01/08 05:02:50;;;;;;;3.85;1.30;;;;;;;;;;6165803;23;20024;-92
2022/01/08 05:05:16;;;;;;;5.07;1.20;;;;;;;;;;6165762;23;20016;-93
2022/01/08 05:07:42;;;;;;;6.25;1.20;;;;;;;;;;6137250;23;20048;-92
2022/01/08 05:10:08;;;;;;;5.93;1.63;;;;;;;;;;6136757;23;20021;-93
2022/01/08 05:12:35;;;;;;;7.18;1.70;;;;;;;;;;6135973;23;20064;-92
2022/01/08 05:15:02;;;;;;;11.23;1.52;;;;;;;;;;6137234;23;20032;-92
2022/01/08 05:17:33;;;;;;;2.60;1.20;;;;;;;;;;6136302;23;20091;-93
2022/01/08 05:20:02;;;;;;;4.85;1.58;;;;;;;;;;6135629;23;20028;-92
2022/01/08 05:22:39;;;;;;;3.50;1.10;;;;;;;;;;6135620;23;20021;-92
2022/01/08 05:25:06;;;;;;;6.32;1.13;;;;;;;;;;6181528;23;20405;-93
2022/01/08 05:27:32;;;;;;;2.88;1.50;;;;;;;;;;6192007;23;20461;-93
2022/01/08 05:29:58;;;;;;;5.43;1.70;;;;;;;;;;6191785;23;20017;-92
2022/01/08 05:32:24;;;;;;;3.42;1.40;;;;;;;;;;6191824;23;20066;-92
2022/01/08 05:34:51;;;;;;;3.22;1.27;;;;;;;;;;6191375;23;20020;-92
2022/01/08 05:37:18;;;;;;;5.25;1.60;;;;;;;;;;6192828;23;20020;-92
2022/01/08 05:39:44;;;;;;;4.60;1.15;;;;;;;;;;6191510;23;20023;-92
2022/01/08 05:42:11;;;;;;;4.05;1.20;;;;;;;;;;6191462;23;20450;-92
2022/01/08 05:44:37;;;;;;;5.88;1.55;;;;;;;;;;6191054;23;20021;-92
2022/01/08 05:47:03;;;;;;;7.80;1.40;;;;;;;;;;6191914;23;20447;-92
2022/01/08 05:49:29;;;;;;;3.38;1.67;;;;;;;;;;6190991;23;20025;-92
2022/01/08 05:51:55;;;;;;;5.95;3.03;;;;;;;;;;6191328;23;20013;-92
2022/01/08 05:54:21;;;;;;;1.17;1.08;;;;;;;;;;6191264;23;20028;-91
2022/01/08 05:56:49;;;;;;;6.78;1.50;;;;;;;;;;6192510;23;20028;-91
2022/01/08 05:59:15;;;;;;;9.80;1.90;;;;;;;;;;6192095;23;20092;-91
2022/01/08 06:01:41;;;;;;;1.92;1.38;;;;;;;;;;6190431;23;20023;-91
2022/01/08 06:04:07;;;;;;;3.97;1.35;;;;;;;;;;6191676;23;20447;-91
2022/01/08 06:06:33;;;;;;;9.18;1.50;;;;;;;;;;6190673;23;20346;-92
2022/01/08 06:08:59;;;;;;;3.45;1.20;;;;;;;;;;6191705;23;20027;-92
2022/01/08 06:11:25;;;;;;;5.78;1.80;;;;;;;;;;6191089;23;20017;-92
2022/01/08 06:13:52;;;;;;;4.38;1.83;;;;;;;;;;6215933;23;20112;-92
2022/01/08 06:16:18;;;;;;;2.10;1.52;;;;;;;;;;6192142;23;20100;-91
2022/01/08 06:18:44;;;;;;;3.97;1.48;;;;;;;;;;6193078;23;20397;-91
2022/01/08 06:21:10;;;;;;;2.63;1.38;;;;;;;;;;6192638;23;20020;-91
2022/01/08 06:23:36;;;;;;;8.27;2.08;;;;;;;;;;6169169;23;20020;-92
2022/01/08 06:26:02;;;;;;;2.90;1.83;;;;;;;;;;6192989;23;20027;-92
2022/01/08 06:28:28;;;;;;;3.25;1.70;;;;;;;;;;6193847;23;20024;-91
2022/01/08 06:30:54;;;;;;;4.57;1.90;;;;;;;;;;6193148;23;20151;-92
2022/01/08 06:33:20;;;;;;;4.72;2.25;;;;;;;;;;6194821;23;20016;-92
2022/01/08 06:35:46;;;;;;;8.98;2.10;;;;;;;;;;6194535;23;20385;-91
2022/01/08 06:38:13;;;;;;;5.70;2.63;;;;;;;;;;6194410;23;20104;-91
2022/01/08 06:40:39;;;;;;;3.60;2.08;;;;;;;;;;6193102;23;20020;-92
2022/01/08 06:43:05;;;;;;;3.63;2.42;;;;;;;;;;6193167;23;20442;-94
2022/01/08 06:45:31;;;;;;;6.82;2.65;;;;;;;;;;6193561;23;20025;-93
2022/01/08 06:47:57;;;;;;;7.30;2.33;;;;;;;;;;6194007;23;20013;-93
2022/01/08 06:50:23;;;;;;;6.90;2.90;;;;;;;;;;6220975;23;20016;-93
2022/01/08 06:52:50;;;;;;;4.78;2.63;;;;;;;;;;6197816;23;20020;-93
2022/01/08 06:55:16;;;;;;;8.43;3.00;;;;;;;;;;6196034;23;20047;-93
2022/01/08 06:57:44;;;;;;;5.82;2.97;;;;;;;;;;6197565;23;20016;-92
2022/01/08 07:00:10;;;;;;;12.25;2.45;;;;;;;;;;6197734;23;20074;-93
2022/01/08 07:02:36;;;;;;;7.43;3.25;;;;;;;;;;6197933;23;20013;-93
2022/01/08 07:05:02;;;;;;;7.53;3.22;;;;;;;;;;6198051;23;20019;-94
2022/01/08 07:07:28;;;;;;;9.25;3.25;;;;;;;;;;6194067;23;20350;-93
2022/01/08 07:09:55;;;;;;;8.13;2.78;;;;;;;;;;6194200;23;20024;-94
2022/01/08 07:12:21;;;;;;;3.58;2.70;;;;;;;;;;6193254;23;20013;-93
2022/01/08 07:14:47;;;;;;;6.47;2.85;;;;;;;;;;6194331;23;20016;-94
2022/01/08 07:17:13;;;;;;;7.63;2.63;;;;;;;;;;6195141;23;20013;-92
2022/01/08 07:19:39;;;;;;;12.43;3.45;;;;;;;;;;6196011;23;20103;-93
2022/01/08 07:22:05;;;;;;;7.25;3.38;;;;;;;;;;6194675;23;20052;-93
2022/01/08 07:24:31;;;;;;;7.28;2.95;;;;;;;;;;6196354;23;20493;-92
2022/01/08 07:26:57;;;;;;;7.10;3.00;;;;;;;;;;6195935;23;20474;-92
2022/01/08 07:29:24;;;;;;;13.63;3.47;;;;;;;;;;6195107;23;20017;-94
2022/01/08 07:31:50;;;;;;;5.35;3.25;;;;;;;;;;6193581;23;20017;-94
2022/01/08 07:34:16;;;;;;;10.50;3.28;;;;;;;;;;6194580;23;20016;-94
2022/01/08 07:36:42;;;;;;;6.05;2.60;;;;;;;;;;6194891;23;20099;-94
2022/01/08 07:39:08;;;;;;;6.95;3.10;;;;;;;;;;6195317;23;20017;-95
2022/01/08 07:41:37;;;;;;;5.20;3.38;;;;;;;;;;6194811;23;20020;-95
2022/01/08 07:44:03;;;;;;;5.95;3.80;;;;;;;;;;6194056;23;20024;-94
2022/01/08 07:46:29;;;;;;;4.05;3.17;;;;;;;;;;6194004;23;20191;-94
2022/01/08 07:48:56;;;;;;;9.77;5.07;;;;;;;;;;6194317;23;20020;-94
2022/01/08 07:51:22;;;;;;;6.15;4.10;;;;;;;;;;6193507;23;20091;-94
2022/01/08 07:53:48;;;;;;;9.55;4.55;;;;;;;;;;6194080;23;20016;-94
2022/01/08 07:56:14;;;;;;;11.00;3.88;;;;;;;;;;6192472;23;20028;-94
2022/01/08 07:58:40;;;;;;;4.45;3.38;;;;;;;;;;6192725;23;20462;-95
2022/01/08 08:01:06;;;;;;;11.20;3.67;;;;;;;;;;6193827;23;20017;-94
2022/01/08 08:03:32;;;;;;;7.90;3.67;;;;;;;;;;6193892;23;20019;-94
2022/01/08 08:05:58;;;;;;;8.80;3.50;;;;;;;;;;6192946;23;20017;-93
2022/01/08 08:08:24;;;;;;;14.48;3.67;;;;;;;;;;6193702;23;20477;-94
2022/01/08 08:10:51;;;;;;;7.75;4.07;;;;;;;;;;6193571;23;20047;-93
2022/01/08 08:13:17;;;;;;;9.13;3.33;;;;;;;;;;6193630;23;20019;-95
2022/01/08 08:22:44;;;;;;;7.85;3.40;;;;;;;;;;6158359;23;20116;-93
2022/01/08 08:27:50;;;;;;;9.30;4.50;;;;;;;;;;6246057;22;19922;-95
2022/01/08 08:33:26;;;;;;;8.32;3.80;;;;;;;;;;6250234;22;20115;-93
2022/01/08 08:35:53;;;;;;;26.45;4.18;;;;;;;;;;6193244;23;20484;-94
2022/01/08 08:41:05;;;;;;;6.07;3.53;;;;;;;;;;6246198;22;20104;-95
2022/01/08 08:43:31;;;;;;;8.45;5.55;;;;;;;;;;6222848;23;20103;-94
2022/01/08 08:45:57;;;;;;;9.90;3.00;;;;;;;;;;6217049;23;20023;-94
2022/01/08 08:48:23;;;;;;;5.25;3.67;;;;;;;;;;6226122;23;20020;-94
2022/01/08 08:50:49;;;;;;;7.40;3.20;;;;;;;;;;6214307;23;20067;-95
2022/01/08 08:53:16;;;;;;;6.82;4.65;;;;;;;;;;6223193;23;20024;-94
2022/01/08 08:55:42;;;;;;;7.07;3.58;;;;;;;;;;6211925;23;20020;-94
2022/01/08 08:58:08;;;;;;;8.90;4.00;;;;;;;;;;6223810;23;20043;-94
2022/01/08 09:00:34;;;;;;;8.65;3.88;;;;;;;;;;6222618;23;20012;-94
2022/01/08 09:03:00;;;;;;;10.25;3.42;;;;;;;;;;6215424;23;20142;-94
2022/01/08 09:05:26;;;;;;;10.93;3.95;;;;;;;;;;6222432;23;20016;-94
2022/01/08 09:07:53;;;;;;;4.20;3.40;;;;;;;;;;6213665;23;20016;-93
2022/01/08 09:10:25;;;;;;;8.20;3.33;;;;;;;;;;6222079;23;20349;-93
2022/01/08 09:12:51;;;;;;;9.18;3.50;;;;;;;;;;6212405;23;20118;-94
2022/01/08 09:15:21;;;;;;;9.52;3.80;;;;;;;;;;6221914;23;20043;-95
2022/01/08 09:17:49;;;;;;;15.32;4.63;;;;;;;;;;6212208;23;20069;-94
2022/01/08 09:20:15;;;;;;;7.05;3.53;;;;;;;;;;6222343;23;20016;-95
2022/01/08 09:22:41;;;;;;;8.95;3.33;;;;;;;;;;6210889;23;20066;-93
2022/01/08 09:25:08;;;;;;;8.60;3.83;;;;;;;;;;6221974;23;20017;-93
2022/01/08 09:27:34;;;;;;;6.82;4.25;;;;;;;;;;6222505;23;20020;-93
2022/01/08 09:30:01;;;;;;;11.32;3.45;;;;;;;;;;6214537;23;20354;-93
2022/01/08 09:32:27;;;;;;;7.82;4.13;;;;;;;;;;6222336;23;20086;-94
2022/01/08 09:34:54;;;;;;;7.05;3.05;;;;;;;;;;6214567;23;20016;-94
2022/01/08 09:37:20;;;;;;;13.68;4.35;;;;;;;;;;6247678;23;20052;-95
2022/01/08 09:39:46;;;;;;;6.40;4.55;;;;;;;;;;6214389;22;20012;-94
2022/01/08 09:42:12;;;;;;;6.43;3.78;;;;;;;;;;6228830;22;20024;-94
2022/01/08 09:44:42;;;;;;;8.80;3.30;;;;;;;;;;6227792;22;20027;-96
2022/01/08 09:47:08;;;;;;;8.15;3.63;;;;;;;;;;6228999;22;20015;-95
2022/01/08 09:49:34;;;;;;;8.52;3.80;;;;;;;;;;6228381;22;20054;-94
2022/01/08 09:52:03;;;;;;;12.10;3.80;;;;;;;;;;6226807;22;20058;-94
2022/01/08 09:54:29;;;;;;;12.63;4.05;;;;;;;;;;6227326;22;20016;-94
2022/01/08 09:56:55;;;;;;;12.52;4.50;;;;;;;;;;6227218;22;20465;-94
2022/01/08 09:59:22;;;;;;;10.70;4.45;;;;;;;;;;6227249;22;20012;-95
2022/01/08 10:01:58;;;;;;;10.90;4.13;;;;;;;;;;6227691;22;20070;-93
2022/01/08 10:04:28;;;;;;;5.65;4.07;;;;;;;;;;6231950;22;20016;-96
2022/01/08 10:07:14;;;;;;;10.15;3.90;;;;;;;;;;6231089;22;20020;-94
2022/01/08 10:09:57;;;;;;;8.25;3.58;;;;;;;;;;6230852;22;20016;-95
2022/01/08 10:12:35;;;;;;;4.20;3.23;;;;;;;;;;6229657;22;20027;-95
2022/01/08 10:17:46;;;;;;;8.65;3.88;;;;;;;;;;6254498;22;20530;-95
2022/01/08 10:20:16;;;;;;;5.65;3.90;;;;;;;;;;6229547;22;20012;-95
2022/01/08 10:22:42;;;;;;;5.88;3.53;;;;;;;;;;6230689;22;20018;-95
2022/01/08 10:25:11;;;;;;;6.97;3.55;;;;;;;;;;6232951;22;20027;-95
2022/01/08 10:27:38;;;;;;;9.48;3.03;;;;;;;;;;6229318;22;20337;-96
2022/01/08 10:30:05;;;;;;;7.07;3.72;;;;;;;;;;6229567;22;20027;-95
2022/01/08 10:32:33;;;;;;;4.68;2.95;;;;;;;;;;6231129;22;20030;-96
2022/01/08 10:34:59;;;;;;;7.38;3.60;;;;;;;;;;6231755;22;20012;-96
2022/01/08 10:37:25;;;;;;;9.75;3.58;;;;;;;;;;6231813;22;20073;-96
2022/01/08 10:39:55;;;;;;;11.45;3.55;;;;;;;;;;6229419;22;20023;-95
2022/01/08 10:42:21;;;;;;;7.50;3.63;;;;;;;;;;6228239;22;20024;-94
2022/01/08 10:44:50;;;;;;;12.55;4.65;;;;;;;;;;6228192;22;20077;-94
2022/01/08 10:47:17;;;;;;;7.07;3.60;;;;;;;;;;6227860;22;20047;-95
2022/01/08 10:49:45;;;;;;;8.02;3.80;;;;;;;;;;6229107;22;20023;-95
2022/01/08 10:52:12;;;;;;;9.90;4.32;;;;;;;;;;6253927;22;20012;-95
2022/01/08 10:54:39;;;;;;;6.30;3.03;;;;;;;;;;6227904;22;20068;-95
2022/01/08 10:57:09;;;;;;;6.25;3.53;;;;;;;;;;6228918;22;20023;-94
2022/01/08 10:59:36;;;;;;;6.38;2.80;;;;;;;;;;6227766;22;20015;-94
2022/01/08 11:02:09;;;;;;;7.68;3.95;;;;;;;;;;6229103;22;20069;-95
2022/01/08 11:04:35;;;;;;;8.82;3.65;;;;;;;;;;6228510;22;20020;-94
2022/01/08 11:07:05;;;;;;;10.00;4.03;;;;;;;;;;6231320;22;20033;-95
2022/01/08 11:09:31;;;;;;;5.53;3.53;;;;;;;;;;6230507;22;20023;-95
2022/01/08 11:11:58;;;;;;;7.47;3.45;;;;;;;;;;6231210;22;20019;-95
2022/01/08 11:14:48;;;;;;;14.20;4.43;;;;;;;;;;6230437;22;20065;-95
2022/01/08 11:17:24;;;;;;;10.88;3.95;;;;;;;;;;6230075;22;20019;-95
2022/01/08 11:19:55;;;;;;;13.88;6.10;;;;;;;;;;6230256;22;20007;-95
2022/01/08 11:22:23;;;;;;;8.70;4.70;;;;;;;;;;6231033;22;20026;-94
2022/01/08 11:24:55;;;;;;;11.63;4.90;;;;;;;;;;6229606;22;20043;-94
2022/01/08 11:27:23;;;;;;;7.40;4.57;;;;;;;;;;6230160;22;20015;-95
2022/01/08 11:29:57;;;;;;;5.85;5.25;;;;;;;;;;6229613;22;20016;-94
2022/01/08 11:32:24;;;;;;;12.27;5.60;;;;;;;;;;6229743;22;20015;-94
2022/01/08 11:34:54;;;;;;;14.95;5.15;;;;;;;;;;6229527;22;20012;-94
2022/01/08 11:37:21;;;;;;;7.85;4.60;;;;;;;;;;6229452;22;20453;-94
2022/01/08 11:39:50;;;;;;;6.30;3.67;;;;;;;;;;6231091;22;20023;-96
2022/01/08 11:42:18;;;;;;;13.52;4.32;;;;;;;;;;6231547;22;20499;-96
2022/01/08 11:44:45;;;;;;;8.18;4.57;;;;;;;;;;6230861;22;20020;-95
2022/01/08 11:47:11;;;;;;;8.95;4.97;;;;;;;;;;6229639;22;20015;-94
2022/01/08 11:49:37;;;;;;;13.68;5.53;;;;;;;;;;6230234;22;20016;-94
2022/01/08 11:52:16;;;;;;;13.45;6.38;;;;;;;;;;6231936;22;20086;-96
2022/01/08 11:54:43;;;;;;;11.75;5.38;;;;;;;;;;6229942;22;20016;-95
2022/01/08 11:57:28;;;;;;;15.80;6.35;;;;;;;;;;6229505;22;20020;-94
2022/01/08 12:00:02;;;;;;;9.00;5.10;;;;;;;;;;6229610;22;20072;-94
2022/01/08 12:02:36;;;;;;;;;;;3.50;99.90;;;;;;6229543;22;20476;-94
2022/01/08 12:05:03;;;;;;;13.03;5.00;;;;;;;;;;6228631;22;19922;-95
2022/01/08 12:07:39;;;;;;;5.43;4.18;;;;;;;;;;6228894;22;20074;-94
2022/01/08 12:10:09;;;;;;;11.43;5.68;;;;;;;;;;6228882;22;20016;-96
2022/01/08 12:12:45;;;;;;;10.80;5.13;;;;;;;;;;6229194;22;20081;-94
2022/01/08 12:15:12;;;;;;;10.27;6.22;;;;;;;;;;6228464;22;20094;-94
2022/01/08 12:17:54;;;;;;;8.40;5.28;;;;;;;;;;6229402;22;20015;-94
2022/01/08 12:20:39;;;;;;;11.63;5.68;;;;;;;;;;6229676;22;20020;-94
2022/01/08 12:23:24;;;;;;;13.60;6.30;;;;;;;;;;6231012;22;20027;-95
2022/01/08 12:25:50;;;;;;;15.77;6.03;;;;;;;;;;6231276;22;20095;-93
2022/01/08 12:29:01;;;;;;;14.13;6.63;;;3.80;99.90;;;;;;6231755;22;20020;-93
2022/01/08 12:31:39;;;;;;;16.27;4.95;;;;;;;;;;6224880;22;20021;-95
2022/01/08 12:34:28;;;;;;;8.88;6.28;;;;;;;;;;6231368;22;20020;-94
2022/01/08 12:36:55;;;;;;;13.65;6.47;;;;;;;;;;6231578;22;20020;-94
2022/01/08 12:39:39;;;;;;;12.05;6.45;;;3.80;99.90;;;;;;6231569;22;20066;-94
2022/01/08 12:42:21;;;;;;;10.88;5.22;;;;;;;;;;6231465;22;20023;-94
2022/01/08 12:45:03;;;;;;;8.65;6.47;;;;;;;;;;6260849;22;20073;-95
2022/01/08 12:47:46;;;;;;;9.10;6.05;;;;;;;;;;6229704;22;20094;-94
2022/01/08 12:50:22;;;;;;;9.98;5.75;;;;;;;;;;6229716;22;20020;-95
2022/01/08 12:53:06;;;;;;;14.23;6.90;;;;;;;;;;6229651;22;20016;-94
2022/01/08 12:55:32;;;;;;;10.32;6.68;;;;;;;;;;6230201;22;20303;-93
2022/01/08 12:57:58;;;;;;;15.07;7.28;;;;;;;;;;6230769;22;20015;-96
2022/01/08 13:00:25;;;;;;;16.17;8.32;;;;;;;;;;6232446;22;20020;-95
2022/01/08 13:02:51;;;;;;;13.98;7.35;;;;;;;;;;6232188;22;20016;-96
2022/01/08 13:05:18;;;;;;;13.15;7.70;;;;;;;;;;6232598;22;20039;-94
2022/01/08 13:07:49;;;;;;;9.18;7.70;;;;;;;;;;6229222;22;20011;-95
2022/01/08 13:10:18;;;;;;;11.77;8.73;;;;;;;;;;6229501;22;20049;-94
2022/01/08 13:13:01;;;;;;;19.30;9.00;;;;;;;;;;6228805;22;20016;-94
2022/01/08 13:15:33;;;;;;;13.25;8.48;;;;;;;;;;6228639;22;20020;-95
2022/01/08 13:18:18;;;;;;;16.90;10.00;;;;;;;;;;6228934;22;20042;-93
2022/01/08 13:20:47;;;;;;;13.98;8.45;;;;;;;;;;6228770;22;20054;-93
2022/01/08 13:23:14;;;;;;;19.30;10.93;;;;;;;;;;6230990;22;20475;-96
2022/01/08 13:25:40;;;;;;;15.10;10.27;;;;;;;;;;6235230;22;20011;-94
2022/01/08 13:28:07;;;;;;;12.13;9.02;;;;;;;;;;6232795;22;20062;-93
2022/01/08 13:30:33;;;;;;;14.73;9.52;;;;;;;;;;6231793;22;20016;-95
2022/01/08 13:33:02;;;;;;;13.70;10.05;;;;;;;;;;6232246;22;20026;-94
2022/01/08 13:35:29;;;;;;;14.13;8.73;;;;;;;;;;6234083;22;20055;-94
2022/01/08 13:37:55;;;;;;;14.38;10.43;;;;;;;;;;6233702;22;20015;-96
2022/01/08 13:40:25;;;;;;;16.63;10.68;;;;;;;;;;6232764;22;20015;-95
2022/01/08 13:42:52;;;;;;;33.42;12.18;;;;;;;;;;6232392;22;20024;-96
2022/01/08 13:45:23;;;;;;;12.70;9.18;;;;;;;;;;6232760;22;20016;-95
2022/01/08 13:47:50;;;;;;;11.90;8.20;;;;;;;;;;6207786;22;20016;-95
2022/01/08 13:50:22;;;;;;;13.32;9.57;;;;;;;;;;6256706;22;20022;-95
2022/01/08 13:53:01;;;;;;;17.45;9.77;;;;;;;;;;6230221;22;20103;-94
2022/01/08 13:55:41;;;;;;;13.85;7.95;;;;;;;;;;6255724;22;20039;-96
2022/01/08 13:58:16;;;;;;;12.35;8.52;;;;;;;;;;6283117;22;20019;-96
2022/01/08 14:01:10;;;;;;;14.93;9.68;;;;;;;;;;6256650;22;20071;-96
2022/01/08 14:03:41;;;;;;;13.85;9.10;;;;;;;;;;6229794;22;20015;-96
2022/01/08 14:06:31;;;;;;;14.95;9.48;;;;;;;;;;6229536;22;20062;-93
2022/01/08 14:09:00;;;;;;;9.25;6.78;;;;;;;;;;6231459;22;20019;-93
2022/01/08 14:11:27;;;;;;;13.18;6.68;;;;;;;;;;6265053;22;20020;-95
2022/01/08 14:13:55;;;;;;;11.23;7.15;;;;;;;;;;6237955;22;20020;-95
2022/01/08 14:16:30;;;;;;;11.18;6.75;;;;;;;;;;6259181;22;20026;-94
2022/01/08 14:19:13;;;;;;;7.72;5.22;;;;;;;;;;6227742;22;20015;-94
2022/01/08 14:21:41;;;;;;;7.03;5.35;;;;;;;;;;6254435;22;20019;-93
2022/01/08 14:24:16;;;;;;;12.82;6.65;;;;;;;;;;6253444;22;20020;-93
2022/01/08 14:26:42;;;;;;;11.23;7.57;;;;;;;;;;6229363;22;20053;-94
2022/01/08 14:29:09;;;;;;;8.02;5.55;;;;;;;;;;6228588;22;20016;-93
2022/01/08 14:31:36;;;;;;;7.93;5.38;;;;;;;;;;6232529;22;20020;-93
2022/01/08 14:34:06;;;;;;;10.27;5.13;;;;;;;;;;6230959;22;20353;-93
2022/01/08 14:36:53;;;;;;;8.25;4.68;;;;;;;;;;6237115;22;20015;-96
2022/01/08 14:39:32;;;;;;;11.75;5.45;;;;;;;;;;6229418;22;20020;-95
2022/01/08 14:41:59;;;;;;;7.20;4.72;;;;;;;;;;6228991;22;20437;-93
2022/01/08 14:44:25;;;;;;;10.00;4.25;;;;;;;;;;6231209;22;20390;-93
2022/01/08 14:46:51;;;;;;;6.03;4.57;;;;;;;;;;6229842;22;20076;-94
2022/01/08 14:49:17;;;;;;;8.40;5.40;;;;;;;;;;6229586;22;20116;-94
2022/01/08 14:51:43;;;;;;;7.18;5.40;;;;;;;;;;6228469;22;20019;-94
2022/01/08 14:54:11;;;;;;;12.75;7.38;;;;;;;;;;6229743;22;20064;-94
2022/01/08 14:56:41;;;;;;;10.70;5.57;;;;;;;;;;6229353;22;20441;-94
2022/01/08 14:59:11;;;;;;;10.10;6.75;;;;;;;;;;6230467;22;20498;-94
2022/01/08 15:01:37;;;;;;;13.73;6.15;;;;;;;;;;6238008;22;20321;-95
2022/01/08 15:04:06;;;;;;;12.68;6.22;;;;;;;;;;6237155;22;20022;-94
2022/01/08 15:06:33;;;;;;;10.77;6.32;;;;;;;;;;6233193;22;20356;-94
2022/01/08 15:09:00;;;;;;;19.67;7.32;;;;;;;;;;6230655;22;20016;-95
2022/01/08 15:11:26;;;;;;;11.05;6.57;;;;;;;;;;6231049;22;20026;-95
2022/01/08 15:13:52;;;;;;;15.68;7.75;;;;;;;;;;6238256;22;20016;-96
2022/01/08 15:16:18;;;;;;;15.50;9.18;;;;;;;;;;6241962;22;20075;-95
2022/01/08 15:18:48;;;;;;;17.00;9.13;;;;;;;;;;6269337;22;20022;-96
2022/01/08 15:21:14;;;;;;;15.68;9.07;;;;;;;;;;6236071;22;20134;-94
2022/01/08 15:23:40;;;;;;;19.00;8.27;;;;;;;;;;6231810;22;20016;-92
2022/01/08 15:26:06;;;;;;;13.57;7.30;;;;;;;;;;6228552;22;20353;-94
2022/01/08 15:28:33;;;;;;;9.80;6.90;;;;;;;;;;6227948;22;20402;-94
2022/01/08 15:30:59;;;;;;;12.38;8.07;;;;;;;;;;6229791;22;20023;-94
2022/01/08 15:33:25;;;;;;;11.52;7.13;;;;;;;;;;6229296;22;20007;-94
2022/01/08 15:35:52;;;;;;;13.30;7.45;;;;;;;;;;6228302;22;20461;-95
2022/01/08 15:38:18;;;;;;;11.93;7.93;;;;;;;;;;6228231;22;20015;-95
2022/01/08 15:40:44;;;;;;;12.55;6.85;;;;;;;;;;6228206;22;20072;-94